Terminal Aerodrome Forecast
Issued by NWS

Home | Current Version | Previous Version | Text Only | Print | Product List | Glossary On
Versions: 1 2 3 4 5 6 7 8 9 10 11 12 13 14 15 16 17 18 19 20 21 22 23 24 25 26
000
FTAK31 PANC 161738
TAFACD
TAF
PACD 161738Z 1618/1718 15012KT P6SM VCSH SCT015 BKN035
      TEMPO 1618/1622 -SHRA BKN015
     FM162200 13011KT P6SM VCSH SCT025 BKN035
      TEMPO 1706/1710 SCT035 BKN100=

USA.gov is the U.S. government's official web portal to all federal, state and local government web resources and services.